METAR Data
IDs: Format: Raw Decoded Include TAF

Data at: 1256 UTC 26 Feb 2021

ESTL 261250Z AUTO 29020KT 9999 OVC012/// 07/05 Q1023